Log in Register

Login to your account

Username *
Password *
Remember Me

Create an account

Fields marked with an asterisk (*) are required.
Name *
Username *
Password *
Verify password *
Email *
Verify email *

METAR/TAF de Chambéry

[source: ADDS]
METAR
LFLB 231700Z AUTO VRB02KT 9999 // ////// 10/05 Q1025 =
TAF LFLB 231400Z 2315/2415 35008KT CAVOK PROB30 TEMPO 2403/2408 VRB02KT 0800 BCFG SCT001
TAF
TAF LFLB 231400Z 2315/2415 35008KT CAVOK PROB30 TEMPO 2403/2408 VRB02KT 0800 BCFG SCT001 =
SR / SS: 06:04 / 16:37 UTC (Lever/Coucher du soleil le 2021-10-23)

 

Webcam de l'Aéroclub - Parking Lima et SW (réactualisation : 5min)

Cliquer ici pour une animation sur les 3 dernières heures / Cliquer sur l'image pour l'agrandir dans une nouvelle fenêtre

 

Webcam de l'Aéroclub - Manche à air et WA (réactualisation : 5min)

Cliquer ici pour une animation sur les 3 dernières heures / Cliquer sur l'image pour l'agrandir dans une nouvelle fenêtre

 

JSN Boot template designed by JoomlaShine.com